createdAt,value
2018-11-01T00:02:35.226Z,57.05
2018-11-01T00:05:29.890Z,50.50
2018-11-01T00:08:23.900Z,56.37
2018-11-01T00:11:17.602Z,80.28
2018-11-01T00:14:12.844Z,69.47
2018-11-01T00:17:09.275Z,65.87
2018-11-01T00:20:05.450Z,84.22
2018-11-01T00:22:59.260Z,89.40
2018-11-01T00:25:53.507Z,112.40
2018-11-01T00:28:47.295Z,115.42
2018-11-01T00:31:41.596Z,81.90
2018-11-01T00:34:35.281Z,95.45
2018-11-01T00:37:28.844Z,108.97
2018-11-01T00:40:22.706Z,96.15
2018-11-01T00:43:17.327Z,80.77
2018-11-01T00:46:12.719Z,74.58
2018-11-01T00:49:07.731Z,64.97
2018-11-01T00:52:03.295Z,74.92
2018-11-01T00:54:58.765Z,78.67
2018-11-01T00:57:56.836Z,69.00
2018-11-01T01:00:52.448Z,61.25
2018-11-01T01:03:49.285Z,69.22
2018-11-01T01:06:44.703Z,58.42
2018-11-01T01:09:40.165Z,66.15
2018-11-01T01:12:35.437Z,67.37
2018-11-01T01:15:31.105Z,64.22
2018-11-01T01:18:27.110Z,58.80
2018-11-01T01:21:22.761Z,60.43
2018-11-01T01:24:18.503Z,68.85
2018-11-01T01:27:12.660Z,66.55
2018-11-01T01:30:07.718Z,71.57
2018-11-01T01:33:03.515Z,67.25
2018-11-01T01:35:59.914Z,66.62
2018-11-01T01:38:55.321Z,62.83
2018-11-01T01:41:51.205Z,64.30
2018-11-01T01:44:47.315Z,67.42
2018-11-01T01:47:41.870Z,71.12
2018-11-01T01:50:37.077Z,67.82
2018-11-01T01:53:31.137Z,64.60
2018-11-01T01:56:26.005Z,63.00
2018-11-01T01:59:22.150Z,52.10
2018-11-01T02:02:16.126Z,52.70
2018-11-01T02:05:11.603Z,57.17
2018-11-01T02:08:08.064Z,55.00
2018-11-01T02:11:05.839Z,52.27
2018-11-01T02:28:43.089Z,58.33
2018-11-01T02:31:37.661Z,47.10
2018-11-01T02:34:31.853Z,48.55
2018-11-01T02:37:25.948Z,41.75
2018-11-01T02:40:20.352Z,51.48
2018-11-01T02:43:15.164Z,55.43
2018-11-01T02:46:09.698Z,48.95
2018-11-01T02:49:03.885Z,50.60
2018-11-01T02:51:58.272Z,60.12
2018-11-01T02:54:51.950Z,49.08
2018-11-01T02:57:45.835Z,48.23
2018-11-01T03:00:40.191Z,45.65
2018-11-01T03:03:35.436Z,50.65
2018-11-01T03:06:33.527Z,43.87
2018-11-01T03:09:27.773Z,36.85
2018-11-01T03:12:21.934Z,30.32
2018-11-01T03:15:18.323Z,63.52
2018-11-01T03:18:14.476Z,45.15
2018-11-01T03:21:09.011Z,33.90
2018-11-01T03:24:03.807Z,38.28
2018-11-01T03:27:00.904Z,31.90
2018-11-01T03:29:55.645Z,35.43
2018-11-01T03:32:49.808Z,37.23
2018-11-01T03:35:44.475Z,35.60
2018-11-01T03:38:38.470Z,33.53
2018-11-01T03:41:32.240Z,34.38
2018-11-01T03:44:26.907Z,28.57
2018-11-01T03:47:22.713Z,32.60
2018-11-01T03:50:16.950Z,28.45
2018-11-01T03:53:14.221Z,39.00
2018-11-01T03:56:08.862Z,32.33
2018-11-01T03:59:02.791Z,35.33
2018-11-01T04:01:57.074Z,33.45
2018-11-01T04:04:55.119Z,27.37
2018-11-01T04:07:50.393Z,29.92
2018-11-01T04:10:45.137Z,33.75
2018-11-01T04:13:40.932Z,27.90
2018-11-01T04:16:35.281Z,28.90
2018-11-01T04:19:30.315Z,33.13
2018-11-01T04:22:25.374Z,27.98
2018-11-01T04:25:20.851Z,36.70
2018-11-01T04:28:15.374Z,115.52
2018-11-01T04:31:10.534Z,134.05
2018-11-01T04:34:08.989Z,36.48
2018-11-01T04:37:04.347Z,25.75
2018-11-01T04:39:59.060Z,24.72
2018-11-01T04:42:57.249Z,36.38
2018-11-01T04:45:58.307Z,27.07
2018-11-01T04:48:49.969Z,27.48
2018-11-01T04:51:44.241Z,32.33
2018-11-01T04:54:38.351Z,34.43
2018-11-01T04:57:32.386Z,27.70
2018-11-01T05:00:26.171Z,15.72
2018-11-01T05:03:21.081Z,31.35
2018-11-01T05:06:19.205Z,23.27
2018-11-01T05:09:31.689Z,23.60
2018-11-01T05:12:36.369Z,19.60
2018-11-01T05:15:30.602Z,25.62
2018-11-01T05:18:25.802Z,25.40
2018-11-01T05:21:20.240Z,20.17
2018-11-01T05:24:24.226Z,26.80
2018-11-01T05:27:19.307Z,24.95
2018-11-01T05:30:16.241Z,31.97
2018-11-01T05:33:11.427Z,20.30
2018-11-01T05:36:20.388Z,29.37
2018-11-01T05:39:16.184Z,35.88
2018-11-01T05:42:13.913Z,22.60
2018-11-01T05:45:14.855Z,29.07
2018-11-01T05:48:12.236Z,33.08
2018-11-01T05:51:21.282Z,25.60
2018-11-01T05:55:34.644Z,27.80
2018-11-01T05:58:48.886Z,29.75
2018-11-01T06:02:11.565Z,29.25
2018-11-01T06:05:11.947Z,26.80
2018-11-01T06:08:08.588Z,32.35
2018-11-01T06:11:08.629Z,34.00
2018-11-01T06:14:06.731Z,29.98
2018-11-01T06:17:04.176Z,18.92
2018-11-01T06:20:01.291Z,23.65
2018-11-01T06:22:56.235Z,16.42
2018-11-01T06:25:50.679Z,22.90
2018-11-01T06:28:53.504Z,18.37
2018-11-01T06:32:10.555Z,27.30
2018-11-01T06:35:15.341Z,29.05
2018-11-01T06:38:13.491Z,24.45
2018-11-01T06:41:19.731Z,23.83
2018-11-01T06:44:20.581Z,33.65
2018-11-01T06:56:11.671Z,33.65
2018-11-01T06:59:10.732Z,33.33
2018-11-01T07:02:12.657Z,26.10
2018-11-01T07:05:07.533Z,37.17
2018-11-01T07:08:12.522Z,28.57
2018-11-01T07:11:18.474Z,22.27
2018-11-01T07:14:10.452Z,24.40
2018-11-01T07:17:07.168Z,29.15
2018-11-01T07:20:03.643Z,28.25
2018-11-01T07:24:03.582Z,23.57
2018-11-01T07:27:08.694Z,28.27
2018-11-01T07:30:06.759Z,26.60
2018-11-01T07:33:05.788Z,31.25
2018-11-01T07:36:14.014Z,37.95
2018-11-01T07:39:29.657Z,26.42
2018-11-01T07:42:35.175Z,31.73
2018-11-01T07:46:11.504Z,40.30
2018-11-01T07:49:09.388Z,22.77
2018-11-01T07:52:04.161Z,30.25
2018-11-01T07:55:03.593Z,30.43
2018-11-01T07:58:08.448Z,27.75
2018-11-01T08:01:11.166Z,22.10
2018-11-01T08:04:07.262Z,26.57
2018-11-01T08:07:05.136Z,27.27
2018-11-01T08:10:00.984Z,31.23
2018-11-01T08:12:57.588Z,21.15
2018-11-01T08:15:53.887Z,38.33
2018-11-01T08:18:50.123Z,29.32
2018-11-01T08:21:47.148Z,33.23
2018-11-01T08:24:46.870Z,39.48
2018-11-01T08:27:42.343Z,40.40
2018-11-01T08:30:38.355Z,28.15
2018-11-01T08:33:34.563Z,51.68
2018-11-01T08:36:30.471Z,27.75
2018-11-01T08:43:11.978Z,25.27
2018-11-01T08:46:19.665Z,28.60
2018-11-01T08:50:23.108Z,22.62
2018-11-01T08:53:19.957Z,26.80
2018-11-01T09:00:27.173Z,25.08
2018-11-01T09:03:19.433Z,27.65
2018-11-01T09:06:19.157Z,25.02
2018-11-01T09:09:17.129Z,29.07
2018-11-01T09:12:17.217Z,19.80
2018-11-01T09:15:20.180Z,24.82
2018-11-01T09:18:18.845Z,25.57
2018-11-01T09:21:16.715Z,25.92
2018-11-01T09:24:25.058Z,23.00
2018-11-01T09:27:28.449Z,21.55
2018-11-01T09:30:28.123Z,17.92
2018-11-01T09:35:34.933Z,26.85
2018-11-01T09:37:08.719Z,33.40
2018-11-01T09:40:26.366Z,33.50
2018-11-01T09:44:10.927Z,27.77
2018-11-01T09:51:25.630Z,24.27
2018-11-01T09:54:31.936Z,22.17
2018-11-01T10:00:51.550Z,30.48
2018-11-01T10:04:28.415Z,27.25
2018-11-01T10:07:34.686Z,25.62
2018-11-01T10:14:13.113Z,29.67
2018-11-01T10:17:19.117Z,24.23
2018-11-01T10:20:32.010Z,23.52
2018-11-01T10:23:28.352Z,20.65
2018-11-01T10:26:26.087Z,17.75
2018-11-01T10:29:38.104Z,19.30
2018-11-01T10:32:32.501Z,20.70
2018-11-01T10:35:31.468Z,33.80
2018-11-01T10:38:28.022Z,26.30
2018-11-01T10:41:25.741Z,26.33
2018-11-01T10:44:23.957Z,27.32
2018-11-01T10:47:23.948Z,26.17
2018-11-01T10:50:45.221Z,31.40
2018-11-01T10:54:35.223Z,29.45
2018-11-01T10:58:27.640Z,24.20
2018-11-01T11:02:01.978Z,29.72
2018-11-01T11:05:00.571Z,27.65
2018-11-01T11:07:59.153Z,27.37
2018-11-01T11:10:58.180Z,26.33
2018-11-01T11:13:56.816Z,27.48
2018-11-01T11:21:27.112Z,24.95
2018-11-01T11:24:28.664Z,24.50
2018-11-01T11:27:27.170Z,20.90
2018-11-01T11:30:27.792Z,36.60
2018-11-01T11:33:34.729Z,31.42
2018-11-01T11:36:38.893Z,26.87
2018-11-01T11:40:03.943Z,26.93
2018-11-01T11:42:58.101Z,30.35
2018-11-01T11:45:54.085Z,27.77
2018-11-01T11:48:48.266Z,42.10
2018-11-01T11:51:46.743Z,35.28
2018-11-01T11:54:45.885Z,40.92
2018-11-01T11:57:40.134Z,37.03
2018-11-01T12:00:34.808Z,54.65
2018-11-01T12:03:30.013Z,46.80
2018-11-01T12:06:24.824Z,43.80
2018-11-01T12:09:20.265Z,36.68
2018-11-01T12:12:21.880Z,46.90
2018-11-01T12:15:16.650Z,52.50
2018-11-01T12:18:12.365Z,49.10
2018-11-01T12:21:07.228Z,38.35
2018-11-01T12:24:02.369Z,47.98
2018-11-01T12:26:57.184Z,47.62
2018-11-01T12:29:51.816Z,49.20
2018-11-01T12:32:57.439Z,35.95
2018-11-01T12:35:56.997Z,50.92
2018-11-01T12:38:47.981Z,47.85
2018-11-01T12:41:43.197Z,56.48
2018-11-01T12:44:37.350Z,57.83
2018-11-01T12:47:31.886Z,50.70
2018-11-01T12:50:26.196Z,62.25
2018-11-01T12:53:20.975Z,45.48
2018-11-01T12:56:15.477Z,51.95
2018-11-01T12:59:09.612Z,65.47
2018-11-01T13:02:05.855Z,53.73
2018-11-01T13:05:00.566Z,63.73
2018-11-01T13:07:55.060Z,62.17
2018-11-01T13:10:49.761Z,59.83
2018-11-01T13:13:43.866Z,60.60
2018-11-01T13:16:40.080Z,73.17
2018-11-01T13:19:33.929Z,74.87
2018-11-01T13:22:27.883Z,70.80
2018-11-01T13:25:22.276Z,67.20
2018-11-01T13:28:16.759Z,71.28
2018-11-01T13:31:11.470Z,77.58
2018-11-01T13:34:05.745Z,72.58
2018-11-01T13:37:00.685Z,61.68
2018-11-01T13:39:55.728Z,64.85
2018-11-01T13:42:50.016Z,66.55
2018-11-01T13:45:45.240Z,62.15
2018-11-01T13:48:40.772Z,57.98
2018-11-01T13:51:35.754Z,55.98
2018-11-01T13:54:29.897Z,55.45
2018-11-01T13:57:27.915Z,52.85
2018-11-01T14:00:21.955Z,54.83
2018-11-01T14:03:16.287Z,57.10
2018-11-01T14:06:13.900Z,49.45
2018-11-01T14:09:09.322Z,48.23
2018-11-01T14:12:03.445Z,47.78
2018-11-01T14:14:58.286Z,58.95
2018-11-01T14:17:52.215Z,65.20
2018-11-01T14:20:46.183Z,60.48
2018-11-01T14:23:41.334Z,64.45
2018-11-01T14:26:36.116Z,57.90
2018-11-01T14:29:30.895Z,64.12
2018-11-01T14:32:25.337Z,58.90
2018-11-01T14:35:20.054Z,52.23
2018-11-01T14:38:13.745Z,54.35
2018-11-01T14:41:07.895Z,67.08
2018-11-01T14:44:04.190Z,59.63
2018-11-01T14:46:59.207Z,63.60
2018-11-01T14:49:53.041Z,54.00
2018-11-01T14:52:51.393Z,53.48
2018-11-01T14:55:46.620Z,51.75
2018-11-01T14:58:41.611Z,56.25
2018-11-01T15:01:37.275Z,57.65
2018-11-01T15:04:31.638Z,59.30
2018-11-01T15:07:27.359Z,57.83
2018-11-01T15:10:21.641Z,61.73
2018-11-01T15:13:16.169Z,54.63
2018-11-01T15:16:10.506Z,58.30
2018-11-01T15:19:10.743Z,53.20
2018-11-01T15:22:06.079Z,57.95
2018-11-01T15:25:00.175Z,51.63
2018-11-01T15:27:54.332Z,63.55
2018-11-01T15:30:48.698Z,59.30
2018-11-01T15:33:42.373Z,58.02
2018-11-01T15:36:36.346Z,56.15
2018-11-01T15:39:30.530Z,61.65
2018-11-01T15:42:24.644Z,58.28
2018-11-01T15:45:18.846Z,51.15
2018-11-01T15:48:13.300Z,62.95
2018-11-01T15:51:07.308Z,58.40
2018-11-01T15:54:01.628Z,65.92
2018-11-01T15:56:55.686Z,68.33
2018-11-01T15:59:49.999Z,69.20
2018-11-01T16:02:46.239Z,64.40
2018-11-01T16:05:40.494Z,79.37
2018-11-01T16:08:35.189Z,63.30
2018-11-01T16:11:29.539Z,71.33
2018-11-01T16:14:23.973Z,59.05
2018-11-01T16:17:21.483Z,67.72
2018-11-01T16:20:16.695Z,71.02
2018-11-01T16:23:10.619Z,57.00
2018-11-01T16:26:06.177Z,63.45
2018-11-01T16:29:02.620Z,61.05
2018-11-01T16:31:57.207Z,74.65
2018-11-01T16:34:51.209Z,77.00
2018-11-01T16:37:46.099Z,67.92
2018-11-01T16:40:40.996Z,81.65
2018-11-01T16:43:35.476Z,77.17
2018-11-01T16:46:32.376Z,72.92
2018-11-01T16:49:26.352Z,78.65
2018-11-01T16:52:20.765Z,72.90
2018-11-01T16:55:14.889Z,93.33
2018-11-01T16:58:08.843Z,93.62
2018-11-01T17:01:02.694Z,87.97
2018-11-01T17:03:57.102Z,92.02
2018-11-01T17:06:51.492Z,87.50
2018-11-01T17:09:45.483Z,92.50
2018-11-01T17:12:39.770Z,84.20
2018-11-01T17:15:37.059Z,74.62
2018-11-01T17:18:30.906Z,77.70
2018-11-01T17:21:27.925Z,83.87
2018-11-01T17:24:19.385Z,113.80
2018-11-01T17:27:13.707Z,126.70
2018-11-01T17:30:08.137Z,143.35
2018-11-01T17:33:02.101Z,141.77
2018-11-01T17:35:56.665Z,146.65
2018-11-01T17:38:51.667Z,121.28
2018-11-01T17:41:46.130Z,107.67
2018-11-01T17:44:40.993Z,110.48
2018-11-01T17:47:35.299Z,99.90
2018-11-01T17:50:29.344Z,86.30
2018-11-01T17:53:23.579Z,75.22
2018-11-01T17:56:18.221Z,83.75
2018-11-01T17:59:13.333Z,83.42
2018-11-01T18:02:07.891Z,73.40
2018-11-01T18:05:07.922Z,82.47
2018-11-01T18:07:58.311Z,65.60
2018-11-01T18:10:55.359Z,60.73
2018-11-01T18:13:49.421Z,65.50
2018-11-01T18:16:43.938Z,64.03
2018-11-01T18:19:38.098Z,58.20
2018-11-01T18:22:33.627Z,57.30
2018-11-01T18:25:27.601Z,53.45
2018-11-01T18:28:21.988Z,52.58
2018-11-01T18:31:16.330Z,60.33
2018-11-01T18:34:10.057Z,57.15
2018-11-01T18:37:04.135Z,61.65
2018-11-01T18:39:58.114Z,51.58
2018-11-01T18:42:53.731Z,58.55
2018-11-01T18:45:47.917Z,57.10
2018-11-01T18:48:44.267Z,53.60
2018-11-01T18:51:37.904Z,56.33
2018-11-01T18:54:31.678Z,59.70
2018-11-01T18:57:25.299Z,52.53
2018-11-01T19:00:20.446Z,52.40
2018-11-01T19:03:14.402Z,53.48
2018-11-01T19:06:08.410Z,55.28
2018-11-01T19:09:05.787Z,64.62
2018-11-01T19:12:01.031Z,61.55
2018-11-01T19:14:55.349Z,53.15
2018-11-01T19:17:49.461Z,57.50
2018-11-01T19:20:43.546Z,55.78
2018-11-01T19:23:37.301Z,55.75
2018-11-01T19:26:30.986Z,50.65
2018-11-01T19:29:30.322Z,66.85
2018-11-01T19:32:20.324Z,65.78
2018-11-01T19:35:16.342Z,56.42
2018-11-01T19:38:10.263Z,57.27
2018-11-01T19:41:04.668Z,61.02
2018-11-01T19:44:01.723Z,59.05
2018-11-01T19:46:55.317Z,55.50
2018-11-01T19:49:49.485Z,63.30
2018-11-01T19:52:47.289Z,62.53
2018-11-01T19:55:37.545Z,65.78
2018-11-01T19:58:31.514Z,60.17
2018-11-01T20:01:25.696Z,58.35
2018-11-01T20:04:19.441Z,62.45
2018-11-01T20:07:13.140Z,69.07
2018-11-01T20:10:06.878Z,64.37
2018-11-01T20:13:00.691Z,77.47
2018-11-01T20:15:54.769Z,86.70
2018-11-01T20:18:48.976Z,82.90
2018-11-01T20:21:42.483Z,80.00
2018-11-01T20:24:36.506Z,62.98
2018-11-01T20:27:29.881Z,70.45
2018-11-01T20:30:24.999Z,74.67
2018-11-01T20:33:18.802Z,71.05
2018-11-01T20:36:12.605Z,78.20
2018-11-01T20:39:07.504Z,82.75
2018-11-01T20:42:01.077Z,66.72
2018-11-01T20:44:56.696Z,64.55
2018-11-01T20:47:50.224Z,66.00
2018-11-01T20:50:44.259Z,59.55
2018-11-01T20:53:39.977Z,65.50
2018-11-01T20:56:34.262Z,56.30
2018-11-01T20:59:28.754Z,52.35
2018-11-01T21:02:28.383Z,54.05
2018-11-01T21:05:18.487Z,56.20
2018-11-01T21:08:12.398Z,69.07
2018-11-01T21:11:06.272Z,178.47
2018-11-01T21:13:59.972Z,190.68
2018-11-01T21:16:54.802Z,313.20
2018-11-01T21:19:48.860Z,317.43
2018-11-01T21:22:45.929Z,313.15
2018-11-01T21:25:37.040Z,326.23
2018-11-01T21:28:30.401Z,351.80
2018-11-01T21:31:23.878Z,424.90
2018-11-01T21:34:17.513Z,446.57
2018-11-01T21:37:11.818Z,342.62
2018-11-01T21:40:05.790Z,290.77
2018-11-01T21:42:59.460Z,257.25
2018-11-01T21:45:55.322Z,251.32
2018-11-01T21:48:49.262Z,211.85
2018-11-01T21:51:43.444Z,196.85
2018-11-01T21:54:37.625Z,245.52
2018-11-01T21:57:34.065Z,245.05
2018-11-01T22:00:27.933Z,249.75
2018-11-01T22:03:21.591Z,258.00
2018-11-01T22:06:18.343Z,265.77
2018-11-01T22:09:12.757Z,242.18
2018-11-01T22:12:06.030Z,241.63
2018-11-01T22:14:59.683Z,241.10
2018-11-01T22:17:53.503Z,254.28
2018-11-01T22:20:47.216Z,237.88
2018-11-01T22:23:41.106Z,210.45
2018-11-01T22:26:35.680Z,206.35
2018-11-01T22:29:29.482Z,195.07
2018-11-01T22:32:23.231Z,179.93
2018-11-01T22:35:18.947Z,180.03
2018-11-01T22:38:13.575Z,179.23
2018-11-01T22:41:07.211Z,178.45
2018-11-01T22:44:04.279Z,187.40
2018-11-01T22:46:58.183Z,197.02
2018-11-01T22:49:53.654Z,170.72
2018-11-01T22:52:51.241Z,167.20
2018-11-01T22:55:45.708Z,169.10
2018-11-01T22:58:39.494Z,154.75
2018-11-01T23:01:36.736Z,139.28
2018-11-01T23:04:30.427Z,155.15
2018-11-01T23:07:26.142Z,147.32
2018-11-01T23:10:19.703Z,136.07
2018-11-01T23:13:15.560Z,125.35
2018-11-01T23:16:09.309Z,117.60
2018-11-01T23:19:03.992Z,115.42
2018-11-01T23:21:57.573Z,122.02
2018-11-01T23:24:52.378Z,104.07
2018-11-01T23:27:46.559Z,102.90
2018-11-01T23:30:40.841Z,100.42
2018-11-01T23:33:34.690Z,104.17
2018-11-01T23:36:28.242Z,103.75
2018-11-01T23:39:41.015Z,94.85
2018-11-01T23:42:53.218Z,93.00
2018-11-01T23:46:03.376Z,88.70
2018-11-01T23:49:02.950Z,97.22
2018-11-01T23:52:09.485Z,108.52
2018-11-01T23:55:04.760Z,108.57
2018-11-01T23:57:58.532Z,104.70
